sensor_id;sensor_type;location;lat;lon;timestamp;pressure;altitude;pressure_sealevel;temperature;humidity
23616;BME280;11985;49.404;7.734;2023-05-03T00:00:01;98220.72;;;6.28;100.00
23616;BME280;11985;49.404;7.734;2023-05-03T00:05:07;98215.97;;;6.24;100.00
23616;BME280;11985;49.404;7.734;2023-05-03T00:10:12;98220.31;;;6.15;100.00
23616;BME280;11985;49.404;7.734;2023-05-03T00:15:16;98214.88;;;6.08;100.00
23616;BME280;11985;49.404;7.734;2023-05-03T00:20:18;98205.56;;;6.06;100.00
23616;BME280;11985;49.404;7.734;2023-05-03T00:25:19;98204.13;;;6.12;100.00
23616;BME280;11985;49.404;7.734;2023-05-03T00:30:23;98200.00;;;6.09;100.00
23616;BME280;11985;49.404;7.734;2023-05-03T00:35:25;98196.38;;;6.02;100.00
23616;BME280;11985;49.404;7.734;2023-05-03T00:40:27;98192.88;;;5.93;100.00
23616;BME280;11985;49.404;7.734;2023-05-03T00:45:32;98181.88;;;5.90;100.00
23616;BME280;11985;49.404;7.734;2023-05-03T00:50:35;98177.41;;;5.82;100.00
23616;BME280;11985;49.404;7.734;2023-05-03T00:55:37;98171.06;;;5.85;100.00
23616;BME280;11985;49.404;7.734;2023-05-03T01:00:40;98173.31;;;5.79;100.00
23616;BME280;11985;49.404;7.734;2023-05-03T01:05:49;98160.69;;;5.75;100.00
23616;BME280;11985;49.404;7.734;2023-05-03T01:10:54;98157.94;;;5.76;100.00
23616;BME280;11985;49.404;7.734;2023-05-03T01:16:05;98150.53;;;5.72;100.00
23616;BME280;11985;49.404;7.734;2023-05-03T01:21:09;98150.34;;;5.65;100.00
23616;BME280;11985;49.404;7.734;2023-05-03T01:26:21;98147.16;;;5.53;100.00
23616;BME280;11985;49.404;7.734;2023-05-03T01:31:28;98149.41;;;5.48;100.00
23616;BME280;11985;49.404;7.734;2023-05-03T01:36:34;98149.19;;;5.42;100.00
23616;BME280;11985;49.404;7.734;2023-05-03T01:41:39;98145.91;;;5.40;100.00
23616;BME280;11985;49.404;7.734;2023-05-03T01:46:42;98145.22;;;5.38;100.00
23616;BME280;11985;49.404;7.734;2023-05-03T01:51:44;98143.22;;;5.32;100.00
23616;BME280;11985;49.404;7.734;2023-05-03T01:56:47;98141.38;;;5.24;100.00
23616;BME280;11985;49.404;7.734;2023-05-03T02:01:48;98156.06;;;5.07;100.00
23616;BME280;11985;49.404;7.734;2023-05-03T02:06:50;98156.81;;;4.99;100.00
23616;BME280;11985;49.404;7.734;2023-05-03T02:11:53;98173.97;;;5.02;100.00
23616;BME280;11985;49.404;7.734;2023-05-03T02:16:55;98171.34;;;4.84;100.00
23616;BME280;11985;49.404;7.734;2023-05-03T02:21:56;98177.28;;;4.76;100.00
23616;BME280;11985;49.404;7.734;2023-05-03T02:26:59;98172.75;;;4.79;100.00
23616;BME280;11985;49.404;7.734;2023-05-03T02:32:01;98177.00;;;4.80;100.00
23616;BME280;11985;49.404;7.734;2023-05-03T02:37:04;98179.91;;;4.76;100.00
23616;BME280;11985;49.404;7.734;2023-05-03T02:42:07;98170.09;;;4.61;100.00
23616;BME280;11985;49.404;7.734;2023-05-03T02:47:10;98176.25;;;4.42;100.00
23616;BME280;11985;49.404;7.734;2023-05-03T02:52:11;98161.72;;;4.39;100.00
23616;BME280;11985;49.404;7.734;2023-05-03T02:57:14;98157.59;;;4.37;100.00
23616;BME280;11985;49.404;7.734;2023-05-03T03:02:16;98164.75;;;4.35;100.00
23616;BME280;11985;49.404;7.734;2023-05-03T03:07:17;98156.09;;;4.34;100.00
23616;BME280;11985;49.404;7.734;2023-05-03T03:12:20;98155.56;;;4.31;100.00
23616;BME280;11985;49.404;7.734;2023-05-03T03:17:22;98156.53;;;4.30;100.00
23616;BME280;11985;49.404;7.734;2023-05-03T03:22:23;98158.91;;;4.23;100.00
23616;BME280;11985;49.404;7.734;2023-05-03T03:27:27;98158.34;;;4.19;100.00
23616;BME280;11985;49.404;7.734;2023-05-03T03:32:28;98149.72;;;4.19;100.00
23616;BME280;11985;49.404;7.734;2023-05-03T03:37:30;98143.38;;;4.21;100.00
23616;BME280;11985;49.404;7.734;2023-05-03T03:42:33;98145.31;;;4.19;100.00
23616;BME280;11985;49.404;7.734;2023-05-03T03:47:34;98143.56;;;4.10;100.00
23616;BME280;11985;49.404;7.734;2023-05-03T03:52:36;98145.66;;;4.07;100.00
23616;BME280;11985;49.404;7.734;2023-05-03T03:57:39;98141.03;;;4.28;100.00
23616;BME280;11985;49.404;7.734;2023-05-03T04:02:41;98142.56;;;4.48;100.00
23616;BME280;11985;49.404;7.734;2023-05-03T04:07:42;98148.03;;;4.55;100.00
23616;BME280;11985;49.404;7.734;2023-05-03T04:12:45;98139.97;;;4.48;100.00
23616;BME280;11985;49.404;7.734;2023-05-03T04:17:47;98155.19;;;4.26;100.00
23616;BME280;11985;49.404;7.734;2023-05-03T04:22:48;98159.59;;;4.15;100.00
23616;BME280;11985;49.404;7.734;2023-05-03T04:27:51;98162.38;;;4.14;100.00
23616;BME280;11985;49.404;7.734;2023-05-03T04:32:53;98153.06;;;4.11;100.00
23616;BME280;11985;49.404;7.734;2023-05-03T04:37:57;98148.75;;;4.20;100.00
23616;BME280;11985;49.404;7.734;2023-05-03T04:43:00;98154.56;;;4.41;100.00
23616;BME280;11985;49.404;7.734;2023-05-03T04:48:03;98154.28;;;4.44;100.00
23616;BME280;11985;49.404;7.734;2023-05-03T04:53:05;98148.47;;;4.50;100.00
23616;BME280;11985;49.404;7.734;2023-05-03T04:58:08;98143.09;;;4.52;100.00
23616;BME280;11985;49.404;7.734;2023-05-03T05:03:09;98148.31;;;4.52;100.00
23616;BME280;11985;49.404;7.734;2023-05-03T05:08:11;98144.66;;;4.45;100.00
23616;BME280;11985;49.404;7.734;2023-05-03T05:13:14;98145.72;;;4.52;100.00
23616;BME280;11985;49.404;7.734;2023-05-03T05:18:16;98145.03;;;4.78;100.00
23616;BME280;11985;49.404;7.734;2023-05-03T05:23:18;98152.72;;;5.15;100.00
23616;BME280;11985;49.404;7.734;2023-05-03T05:28:21;98160.38;;;5.52;99.97
23616;BME280;11985;49.404;7.734;2023-05-03T05:33:23;98155.78;;;5.72;97.88
23616;BME280;11985;49.404;7.734;2023-05-03T05:38:24;98154.38;;;5.77;95.90
23616;BME280;11985;49.404;7.734;2023-05-03T05:43:28;98160.75;;;6.01;95.60
23616;BME280;11985;49.404;7.734;2023-05-03T05:48:30;98152.72;;;6.28;94.58
23616;BME280;11985;49.404;7.734;2023-05-03T05:53:31;98144.88;;;6.37;92.79
23616;BME280;11985;49.404;7.734;2023-05-03T05:58:35;98142.63;;;6.42;91.52
23616;BME280;11985;49.404;7.734;2023-05-03T06:03:37;98141.38;;;6.62;90.89
23616;BME280;11985;49.404;7.734;2023-05-03T06:08:39;98147.63;;;6.69;89.58
23616;BME280;11985;49.404;7.734;2023-05-03T06:13:42;98151.28;;;6.93;89.26
23616;BME280;11985;49.404;7.734;2023-05-03T06:18:43;98160.47;;;7.13;89.42
23616;BME280;11985;49.404;7.734;2023-05-03T06:23:45;98164.75;;;7.30;87.76
23616;BME280;11985;49.404;7.734;2023-05-03T06:28:49;98174.94;;;7.50;86.60
23616;BME280;11985;49.404;7.734;2023-05-03T06:33:51;98184.91;;;7.71;86.30
23616;BME280;11985;49.404;7.734;2023-05-03T06:38:53;98180.66;;;7.94;86.03
23616;BME280;11985;49.404;7.734;2023-05-03T06:43:56;98177.75;;;8.36;84.43
23616;BME280;11985;49.404;7.734;2023-05-03T06:48:58;98174.97;;;8.38;83.04
23616;BME280;11985;49.404;7.734;2023-05-03T06:54:00;98184.19;;;8.73;82.18
23616;BME280;11985;49.404;7.734;2023-05-03T06:59:07;98178.06;;;9.12;80.79
23616;BME280;11985;49.404;7.734;2023-05-03T07:04:09;98170.66;;;9.38;79.13
23616;BME280;11985;49.404;7.734;2023-05-03T07:09:11;98166.97;;;9.47;78.44
23616;BME280;11985;49.404;7.734;2023-05-03T07:14:14;98173.72;;;9.65;77.29
23616;BME280;11985;49.404;7.734;2023-05-03T07:19:16;98175.03;;;9.69;77.50
23616;BME280;11985;49.404;7.734;2023-05-03T07:24:18;98167.84;;;10.00;77.04
23616;BME280;11985;49.404;7.734;2023-05-03T07:29:21;98172.88;;;10.25;76.27
23616;BME280;11985;49.404;7.734;2023-05-03T07:34:23;98175.59;;;10.46;74.98
23616;BME280;11985;49.404;7.734;2023-05-03T07:39:25;98167.06;;;10.44;74.18
23616;BME280;11985;49.404;7.734;2023-05-03T07:44:28;98157.28;;;10.89;74.38
23616;BME280;11985;49.404;7.734;2023-05-03T07:49:30;98159.63;;;11.20;73.08
23616;BME280;11985;49.404;7.734;2023-05-03T07:54:34;98153.41;;;11.06;72.00
23616;BME280;11985;49.404;7.734;2023-05-03T07:59:37;98158.03;;;11.04;71.68
23616;BME280;11985;49.404;7.734;2023-05-03T08:04:39;98155.41;;;11.26;72.04
23616;BME280;11985;49.404;7.734;2023-05-03T08:09:41;98163.22;;;11.55;71.69
23616;BME280;11985;49.404;7.734;2023-05-03T08:14:44;98166.31;;;11.87;70.58
23616;BME280;11985;49.404;7.734;2023-05-03T08:19:45;98167.09;;;11.59;69.53
23616;BME280;11985;49.404;7.734;2023-05-03T08:24:47;98170.38;;;11.61;69.99
23616;BME280;11985;49.404;7.734;2023-05-03T08:29:50;98168.38;;;11.92;70.27
23616;BME280;11985;49.404;7.734;2023-05-03T08:34:53;98155.28;;;12.33;69.24
23616;BME280;11985;49.404;7.734;2023-05-03T08:39:56;98155.03;;;12.76;68.57
23616;BME280;11985;49.404;7.734;2023-05-03T08:44:59;98150.00;;;12.87;66.87
23616;BME280;11985;49.404;7.734;2023-05-03T08:50:02;98150.66;;;13.09;66.74
23616;BME280;11985;49.404;7.734;2023-05-03T08:55:07;98144.78;;;13.20;66.34
23616;BME280;11985;49.404;7.734;2023-05-03T09:00:11;98148.66;;;13.11;66.46
23616;BME280;11985;49.404;7.734;2023-05-03T09:05:33;98141.75;;;13.10;66.71
23616;BME280;11985;49.404;7.734;2023-05-03T09:10:38;98144.56;;;13.02;66.81
23616;BME280;11985;49.404;7.734;2023-05-03T09:15:42;98138.91;;;13.18;66.29
23616;BME280;11985;49.404;7.734;2023-05-03T09:20:47;98149.75;;;13.37;65.50
23616;BME280;11985;49.404;7.734;2023-05-03T09:25:51;98148.88;;;13.16;65.88
23616;BME280;11985;49.404;7.734;2023-05-03T09:31:05;98146.09;;;13.51;65.87
23616;BME280;11985;49.404;7.734;2023-05-03T09:36:07;98129.19;;;13.52;65.67
23616;BME280;11985;49.404;7.734;2023-05-03T09:41:10;98122.28;;;13.84;64.90
23616;BME280;11985;49.404;7.734;2023-05-03T09:46:15;98122.03;;;13.99;63.74
23616;BME280;11985;49.404;7.734;2023-05-03T09:51:18;98115.72;;;14.00;63.77
23616;BME280;11985;49.404;7.734;2023-05-03T09:56:22;98124.78;;;14.44;64.58
23616;BME280;11985;49.404;7.734;2023-05-03T10:01:27;98126.41;;;14.45;63.62
23616;BME280;11985;49.404;7.734;2023-05-03T10:06:30;98121.75;;;14.47;62.86
23616;BME280;11985;49.404;7.734;2023-05-03T10:11:33;98109.09;;;14.56;62.38
23616;BME280;11985;49.404;7.734;2023-05-03T10:16:38;98116.84;;;14.44;62.24
23616;BME280;11985;49.404;7.734;2023-05-03T10:21:53;98105.44;;;14.50;61.38
23616;BME280;11985;49.404;7.734;2023-05-03T10:26:56;98107.66;;;14.46;61.08
23616;BME280;11985;49.404;7.734;2023-05-03T10:31:59;98119.06;;;14.53;61.48
23616;BME280;11985;49.404;7.734;2023-05-03T10:37:02;98100.66;;;14.65;61.69
23616;BME280;11985;49.404;7.734;2023-05-03T10:42:04;98100.34;;;14.87;60.69
23616;BME280;11985;49.404;7.734;2023-05-03T10:47:13;98089.25;;;15.03;60.02
23616;BME280;11985;49.404;7.734;2023-05-03T10:52:49;98088.13;;;15.17;59.70
23616;BME280;11985;49.404;7.734;2023-05-03T10:57:52;98071.13;;;15.25;60.13
23616;BME280;11985;49.404;7.734;2023-05-03T11:03:30;98075.22;;;15.27;59.00
23616;BME280;11985;49.404;7.734;2023-05-03T11:08:34;98069.91;;;15.21;58.69
23616;BME280;11985;49.404;7.734;2023-05-03T11:13:37;98070.72;;;15.28;59.54
23616;BME280;11985;49.404;7.734;2023-05-03T11:18:40;98059.25;;;15.52;58.75
23616;BME280;11985;49.404;7.734;2023-05-03T11:23:43;98053.53;;;15.30;58.06
23616;BME280;11985;49.404;7.734;2023-05-03T11:28:45;98057.59;;;15.33;57.78
23616;BME280;11985;49.404;7.734;2023-05-03T11:33:48;98053.16;;;15.52;58.81
23616;BME280;11985;49.404;7.734;2023-05-03T11:38:50;98038.84;;;15.78;57.81
23616;BME280;11985;49.404;7.734;2023-05-03T11:43:51;98053.16;;;15.77;56.44
23616;BME280;11985;49.404;7.734;2023-05-03T11:48:54;98043.63;;;15.69;56.28
23616;BME280;11985;49.404;7.734;2023-05-03T11:53:58;98030.97;;;15.90;56.88
23616;BME280;11985;49.404;7.734;2023-05-03T11:59:00;98031.69;;;16.15;55.52
23616;BME280;11985;49.404;7.734;2023-05-03T12:04:04;98025.91;;;15.81;54.81
23616;BME280;11985;49.404;7.734;2023-05-03T12:09:14;98026.28;;;16.03;55.91
23616;BME280;11985;49.404;7.734;2023-05-03T12:14:15;98023.44;;;16.05;55.08
23616;BME280;11985;49.404;7.734;2023-05-03T12:19:25;98027.13;;;16.22;56.11
23616;BME280;11985;49.404;7.734;2023-05-03T12:24:26;98020.78;;;16.53;55.00
23616;BME280;11985;49.404;7.734;2023-05-03T12:29:28;98008.25;;;16.42;53.91
23616;BME280;11985;49.404;7.734;2023-05-03T12:34:31;98010.19;;;16.35;53.55
23616;BME280;11985;49.404;7.734;2023-05-03T12:39:36;98006.16;;;16.32;53.83
23616;BME280;11985;49.404;7.734;2023-05-03T12:44:42;97999.06;;;16.56;54.29
23616;BME280;11985;49.404;7.734;2023-05-03T12:49:44;97994.34;;;16.88;53.31
23616;BME280;11985;49.404;7.734;2023-05-03T12:54:46;97994.25;;;17.30;52.34
23616;BME280;11985;49.404;7.734;2023-05-03T12:59:48;97996.00;;;17.36;51.68
23616;BME280;11985;49.404;7.734;2023-05-03T13:04:53;97984.22;;;17.44;51.02
23616;BME280;11985;49.404;7.734;2023-05-03T13:09:56;97977.47;;;17.30;50.87
23616;BME280;11985;49.404;7.734;2023-05-03T13:15:00;97977.47;;;17.41;50.53
23616;BME280;11985;49.404;7.734;2023-05-03T13:20:05;97973.78;;;17.66;50.95
23616;BME280;11985;49.404;7.734;2023-05-03T13:25:07;97965.88;;;17.94;49.84
23616;BME280;11985;49.404;7.734;2023-05-03T13:30:09;97953.66;;;17.99;48.37
23616;BME280;11985;49.404;7.734;2023-05-03T13:35:13;97953.63;;;17.58;48.68
23616;BME280;11985;49.404;7.734;2023-05-03T13:40:14;97952.94;;;17.75;48.55
23616;BME280;11985;49.404;7.734;2023-05-03T13:45:16;97945.63;;;17.47;47.60
23616;BME280;11985;49.404;7.734;2023-05-03T13:50:20;97948.88;;;17.72;48.12
23616;BME280;11985;49.404;7.734;2023-05-03T13:55:22;97939.03;;;18.41;47.47
23616;BME280;11985;49.404;7.734;2023-05-03T14:00:25;97949.25;;;18.16;46.05
23616;BME280;11985;49.404;7.734;2023-05-03T14:05:28;97936.41;;;18.01;46.03
23616;BME280;11985;49.404;7.734;2023-05-03T14:10:33;97930.72;;;17.98;46.07
23616;BME280;11985;49.404;7.734;2023-05-03T14:15:37;97927.88;;;17.87;45.30
23616;BME280;11985;49.404;7.734;2023-05-03T14:20:40;97912.94;;;18.15;45.53
23616;BME280;11985;49.404;7.734;2023-05-03T14:25:41;97923.50;;;18.10;45.00
23616;BME280;11985;49.404;7.734;2023-05-03T14:30:43;97910.75;;;18.12;45.22
23616;BME280;11985;49.404;7.734;2023-05-03T14:35:46;97901.91;;;18.23;44.63
23616;BME280;11985;49.404;7.734;2023-05-03T14:40:48;97897.94;;;17.97;44.79
23616;BME280;11985;49.404;7.734;2023-05-03T14:45:49;97904.84;;;17.81;44.61
23616;BME280;11985;49.404;7.734;2023-05-03T14:50:52;97897.81;;;18.04;44.68
23616;BME280;11985;49.404;7.734;2023-05-03T14:55:55;97894.47;;;17.97;44.56
23616;BME280;11985;49.404;7.734;2023-05-03T15:00:57;97894.16;;;18.22;44.93
23616;BME280;11985;49.404;7.734;2023-05-03T15:06:00;97890.31;;;18.63;44.21
23616;BME280;11985;49.404;7.734;2023-05-03T15:11:04;97873.44;;;18.74;43.34
23616;BME280;11985;49.404;7.734;2023-05-03T15:16:07;97874.19;;;18.24;43.67
23616;BME280;11985;49.404;7.734;2023-05-03T15:21:10;97863.63;;;18.46;44.00
23616;BME280;11985;49.404;7.734;2023-05-03T15:26:12;97864.47;;;18.80;43.40
23616;BME280;11985;49.404;7.734;2023-05-03T15:31:14;97857.69;;;18.89;42.69
23616;BME280;11985;49.404;7.734;2023-05-03T15:36:18;97858.31;;;18.80;42.48
23616;BME280;11985;49.404;7.734;2023-05-03T15:41:19;97862.75;;;18.91;42.93
23616;BME280;11985;49.404;7.734;2023-05-03T15:46:21;97858.00;;;18.76;43.01
23616;BME280;11985;49.404;7.734;2023-05-03T15:51:24;97857.34;;;18.69;42.48
23616;BME280;11985;49.404;7.734;2023-05-03T15:56:27;97866.22;;;18.58;41.87
23616;BME280;11985;49.404;7.734;2023-05-03T16:01:29;97851.72;;;18.82;40.47
23616;BME280;11985;49.404;7.734;2023-05-03T16:06:32;97854.03;;;18.95;38.45
23616;BME280;11985;49.404;7.734;2023-05-03T16:11:33;97843.25;;;19.68;37.65
23616;BME280;11985;49.404;7.734;2023-05-03T16:16:36;97852.94;;;19.74;37.29
23616;BME280;11985;49.404;7.734;2023-05-03T16:21:39;97851.38;;;19.56;36.95
23616;BME280;11985;49.404;7.734;2023-05-03T16:26:40;97843.09;;;19.36;37.84
23616;BME280;11985;49.404;7.734;2023-05-03T16:31:42;97839.84;;;19.12;38.54
23616;BME280;11985;49.404;7.734;2023-05-03T16:36:47;97841.56;;;19.62;39.38
23616;BME280;11985;49.404;7.734;2023-05-03T16:41:48;97828.75;;;20.13;40.50
23616;BME280;11985;49.404;7.734;2023-05-03T16:46:50;97841.84;;;20.41;39.92
23616;BME280;11985;49.404;7.734;2023-05-03T16:51:55;97842.25;;;20.92;39.88
23616;BME280;11985;49.404;7.734;2023-05-03T16:56:56;97835.00;;;21.35;40.10
23616;BME280;11985;49.404;7.734;2023-05-03T17:01:58;97822.97;;;22.72;38.27
23616;BME280;11985;49.404;7.734;2023-05-03T17:07:01;97835.41;;;23.53;37.21
23616;BME280;11985;49.404;7.734;2023-05-03T17:12:03;97841.41;;;24.43;35.63
23616;BME280;11985;49.404;7.734;2023-05-03T17:17:05;97840.56;;;25.54;34.39
23616;BME280;11985;49.404;7.734;2023-05-03T17:22:09;97848.38;;;24.79;33.91
23616;BME280;11985;49.404;7.734;2023-05-03T17:27:10;97847.53;;;21.87;35.63
23616;BME280;11985;49.404;7.734;2023-05-03T17:32:12;97857.13;;;19.92;38.14
23616;BME280;11985;49.404;7.734;2023-05-03T17:37:15;97851.97;;;18.35;40.11
23616;BME280;11985;49.404;7.734;2023-05-03T17:42:17;97852.31;;;17.41;42.20
23616;BME280;11985;49.404;7.734;2023-05-03T17:47:18;97852.50;;;16.76;43.84
23616;BME280;11985;49.404;7.734;2023-05-03T17:52:22;97861.56;;;16.33;45.44
23616;BME280;11985;49.404;7.734;2023-05-03T17:57:23;97852.91;;;16.08;46.63
23616;BME280;11985;49.404;7.734;2023-05-03T18:02:25;97849.16;;;15.86;47.05
23616;BME280;11985;49.404;7.734;2023-05-03T18:07:28;97859.19;;;15.65;47.85
23616;BME280;11985;49.404;7.734;2023-05-03T18:12:30;97861.13;;;15.40;48.18
23616;BME280;11985;49.404;7.734;2023-05-03T18:17:32;97865.59;;;15.21;48.69
23616;BME280;11985;49.404;7.734;2023-05-03T18:22:35;97864.34;;;15.05;49.08
23616;BME280;11985;49.404;7.734;2023-05-03T18:27:36;97859.00;;;14.87;49.41
23616;BME280;11985;49.404;7.734;2023-05-03T18:32:38;97867.75;;;14.69;50.08
23616;BME280;11985;49.404;7.734;2023-05-03T18:37:41;97866.59;;;14.58;50.40
23616;BME280;11985;49.404;7.734;2023-05-03T18:42:43;97869.63;;;14.62;50.45
23616;BME280;11985;49.404;7.734;2023-05-03T18:47:44;97878.56;;;14.67;50.48
23616;BME280;11985;49.404;7.734;2023-05-03T18:52:47;97881.91;;;14.56;50.15
23616;BME280;11985;49.404;7.734;2023-05-03T18:57:50;97883.88;;;14.36;50.45
23616;BME280;11985;49.404;7.734;2023-05-03T19:02:51;97882.59;;;14.13;50.36
23616;BME280;11985;49.404;7.734;2023-05-03T19:07:54;97874.38;;;13.90;51.09
23616;BME280;11985;49.404;7.734;2023-05-03T19:12:56;97879.13;;;13.74;51.38
23616;BME280;11985;49.404;7.734;2023-05-03T19:17:58;97880.03;;;13.55;52.70
23616;BME280;11985;49.404;7.734;2023-05-03T19:23:01;97878.06;;;13.24;54.35
23616;BME280;11985;49.404;7.734;2023-05-03T19:28:03;97884.00;;;12.93;55.55
23616;BME280;11985;49.404;7.734;2023-05-03T19:33:06;97887.47;;;12.67;56.94
23616;BME280;11985;49.404;7.734;2023-05-03T19:38:09;97893.97;;;12.45;58.00
23616;BME280;11985;49.404;7.734;2023-05-03T19:43:10;97893.34;;;12.23;59.43
23616;BME280;11985;49.404;7.734;2023-05-03T19:48:12;97884.56;;;12.02;60.15
23616;BME280;11985;49.404;7.734;2023-05-03T19:53:16;97883.72;;;11.95;60.27
23616;BME280;11985;49.404;7.734;2023-05-03T19:58:17;97882.94;;;12.01;61.32
23616;BME280;11985;49.404;7.734;2023-05-03T20:03:21;97886.59;;;12.13;61.88
23616;BME280;11985;49.404;7.734;2023-05-03T20:08:24;97887.63;;;12.12;61.71
23616;BME280;11985;49.404;7.734;2023-05-03T20:13:26;97886.59;;;12.00;61.89
23616;BME280;11985;49.404;7.734;2023-05-03T20:18:29;97882.00;;;11.81;62.86
23616;BME280;11985;49.404;7.734;2023-05-03T20:23:32;97890.84;;;11.53;64.48
23616;BME280;11985;49.404;7.734;2023-05-03T20:28:34;97885.88;;;11.30;65.50
23616;BME280;11985;49.404;7.734;2023-05-03T20:33:35;97891.03;;;11.10;66.91
23616;BME280;11985;49.404;7.734;2023-05-03T20:38:38;97877.28;;;10.87;68.25
23616;BME280;11985;49.404;7.734;2023-05-03T20:43:40;97874.16;;;10.77;69.86
23616;BME280;11985;49.404;7.734;2023-05-03T20:48:41;97862.34;;;10.66;71.00
23616;BME280;11985;49.404;7.734;2023-05-03T20:53:44;97864.91;;;10.60;72.38
23616;BME280;11985;49.404;7.734;2023-05-03T20:58:46;97868.66;;;10.44;73.14
23616;BME280;11985;49.404;7.734;2023-05-03T21:03:47;97854.97;;;10.12;74.45
23616;BME280;11985;49.404;7.734;2023-05-03T21:08:50;97858.41;;;9.91;75.91
23616;BME280;11985;49.404;7.734;2023-05-03T21:13:52;97860.38;;;9.68;77.78
23616;BME280;11985;49.404;7.734;2023-05-03T21:18:54;97859.50;;;9.46;79.47
23616;BME280;11985;49.404;7.734;2023-05-03T21:23:57;97858.63;;;9.24;81.22
23616;BME280;11985;49.404;7.734;2023-05-03T21:28:59;97861.44;;;9.08;82.93
23616;BME280;11985;49.404;7.734;2023-05-03T21:34:00;97857.38;;;8.90;84.76
23616;BME280;11985;49.404;7.734;2023-05-03T21:39:04;97855.81;;;8.81;86.23
23616;BME280;11985;49.404;7.734;2023-05-03T21:44:06;97846.03;;;8.75;87.43
23616;BME280;11985;49.404;7.734;2023-05-03T21:49:08;97841.59;;;8.76;87.58
23616;BME280;11985;49.404;7.734;2023-05-03T21:54:10;97830.19;;;8.68;88.19
23616;BME280;11985;49.404;7.734;2023-05-03T21:59:12;97826.47;;;8.63;88.28
23616;BME280;11985;49.404;7.734;2023-05-03T22:04:14;97827.19;;;8.57;89.12
23616;BME280;11985;49.404;7.734;2023-05-03T22:09:17;97824.28;;;8.52;90.21
23616;BME280;11985;49.404;7.734;2023-05-03T22:14:19;97831.88;;;8.46;90.49
23616;BME280;11985;49.404;7.734;2023-05-03T22:19:20;97825.69;;;8.39;91.22
23616;BME280;11985;49.404;7.734;2023-05-03T22:24:23;97826.72;;;8.30;91.45
23616;BME280;11985;49.404;7.734;2023-05-03T22:29:25;97820.19;;;8.26;91.78
23616;BME280;11985;49.404;7.734;2023-05-03T22:34:27;97814.50;;;8.23;92.02
23616;BME280;11985;49.404;7.734;2023-05-03T22:39:30;97816.19;;;8.15;93.07
23616;BME280;11985;49.404;7.734;2023-05-03T22:44:32;97817.06;;;8.08;93.64
23616;BME280;11985;49.404;7.734;2023-05-03T22:49:34;97815.50;;;7.99;94.41
23616;BME280;11985;49.404;7.734;2023-05-03T22:54:37;97814.06;;;7.96;93.77
23616;BME280;11985;49.404;7.734;2023-05-03T22:59:38;97810.63;;;7.96;94.25
23616;BME280;11985;49.404;7.734;2023-05-03T23:04:40;97814.22;;;7.94;94.87
23616;BME280;11985;49.404;7.734;2023-05-03T23:09:45;97812.66;;;7.85;95.43
23616;BME280;11985;49.404;7.734;2023-05-03T23:14:48;97803.19;;;7.76;96.36
23616;BME280;11985;49.404;7.734;2023-05-03T23:19:50;97798.34;;;7.65;97.36
23616;BME280;11985;49.404;7.734;2023-05-03T23:24:54;97791.88;;;7.53;97.83
23616;BME280;11985;49.404;7.734;2023-05-03T23:29:56;97798.75;;;7.54;97.49
23616;BME280;11985;49.404;7.734;2023-05-03T23:34:57;97797.38;;;7.66;96.99
23616;BME280;11985;49.404;7.734;2023-05-03T23:40:01;97793.13;;;7.65;97.08
23616;BME280;11985;49.404;7.734;2023-05-03T23:45:03;97801.34;;;7.62;97.28
23616;BME280;11985;49.404;7.734;2023-05-03T23:50:06;97784.72;;;7.47;97.48
23616;BME280;11985;49.404;7.734;2023-05-03T23:55:10;97778.88;;;7.36;98.89
